Time;durP1;ratioP1;P1;durP2;ratioP2;P2;SDS_P1;SDS_P2;PMS_P1;PMS_P2;Temp;Humidity;BMP_temperature;BMP_pressure;BME280_temperature;BME280_humidity;BME280_pressure;Samples;Min_cycle;Max_cycle;Signal;HPM_P1;HPM_P2
2023/03/19 00:00:24;;;;;;;5.47;3.97;;;;;;;13.07;53.76;96361.22;5072810;28;20298;-57
2023/03/19 00:02:51;;;;;;;6.23;4.20;;;;;;;13.04;53.37;96366.84;5073142;28;20296;-58
2023/03/19 00:05:19;;;;;;;8.33;4.30;;;;;;;13.08;53.57;96368.16;5072558;28;20233;-57
2023/03/19 00:07:45;;;;;;;4.77;4.27;;;;;;;13.07;54.10;96374.50;5072539;28;20293;-58
2023/03/19 00:10:12;;;;;;;5.80;4.33;;;;;;;13.06;54.07;96372.81;5072445;28;20635;-59
2023/03/19 00:12:38;;;;;;;5.53;4.10;;;;;;;13.05;53.74;96377.28;5072220;28;20199;-57
2023/03/19 00:15:07;;;;;;;5.47;4.23;;;;;;;13.08;53.62;96373.47;5073463;28;20206;-59
2023/03/19 00:17:34;;;;;;;6.50;4.57;;;;;;;13.06;53.93;96381.63;5071153;28;20201;-58
2023/03/19 00:20:01;;;;;;;6.40;4.70;;;;;;;13.07;53.69;96377.16;5072454;28;20294;-59
2023/03/19 00:22:28;;;;;;;5.43;4.17;;;;;;;13.05;54.12;96387.09;5071591;28;20237;-59
2023/03/19 00:24:55;;;;;;;6.57;4.53;;;;;;;13.09;53.58;96394.59;5072158;28;20210;-58
2023/03/19 00:27:22;;;;;;;5.43;4.57;;;;;;;13.10;53.10;96390.13;5072103;28;20532;-58
2023/03/19 00:29:48;;;;;;;5.77;4.57;;;;;;;13.12;52.84;96386.28;5071994;28;20236;-57
2023/03/19 00:32:15;;;;;;;6.67;4.97;;;;;;;13.10;53.54;96390.94;5071857;28;20229;-59
2023/03/19 00:34:42;;;;;;;6.63;4.70;;;;;;;13.11;53.37;96391.78;5072242;28;20538;-57
2023/03/19 00:37:10;;;;;;;7.53;5.37;;;;;;;13.12;53.13;96396.09;5071201;28;20214;-58
2023/03/19 00:39:38;;;;;;;7.97;5.10;;;;;;;13.08;54.15;96395.53;5071235;28;20644;-58
2023/03/19 00:42:06;;;;;;;5.70;4.73;;;;;;;13.05;54.04;96401.19;5070681;28;20198;-58
2023/03/19 00:44:33;;;;;;;7.57;5.13;;;;;;;13.03;54.23;96407.66;5071983;28;20203;-58
2023/03/19 00:46:59;;;;;;;7.00;4.47;;;;;;;13.02;54.12;96413.97;5071434;28;20233;-58
2023/03/19 00:49:26;;;;;;;5.70;4.87;;;;;;;12.97;54.32;96415.28;5071864;28;20230;-58
2023/03/19 00:51:52;;;;;;;6.17;4.70;;;;;;;12.97;54.34;96422.41;5071189;28;20210;-58
2023/03/19 00:54:19;;;;;;;5.07;4.57;;;;;;;12.90;54.78;96419.56;5071588;28;20195;-58
2023/03/19 00:56:46;;;;;;;5.93;4.50;;;;;;;12.80;57.17;96421.53;5070433;28;20206;-58
2023/03/19 00:59:13;;;;;;;8.33;4.67;;;;;;;12.74;59.55;96416.91;5071308;28;20207;-59
2023/03/19 01:01:39;;;;;;;5.13;3.97;;;;;;;12.68;59.36;96420.16;5070439;28;20219;-58
2023/03/19 01:04:06;;;;;;;6.47;4.47;;;;;;;12.67;58.06;96429.16;5071484;28;20202;-58
2023/03/19 01:06:32;;;;;;;5.60;4.60;;;;;;;12.64;59.22;96429.47;5070750;28;20229;-58
2023/03/19 01:08:59;;;;;;;5.73;4.90;;;;;;;12.55;59.64;96417.16;5070031;28;20218;-58
2023/03/19 01:11:26;;;;;;;7.33;4.53;;;;;;;12.54;58.46;96423.44;5070898;28;20205;-58
2023/03/19 01:13:54;;;;;;;4.93;4.43;;;;;;;12.48;59.79;96416.97;5070310;28;20636;-59
2023/03/19 01:16:21;;;;;;;5.10;4.60;;;;;;;12.40;61.16;96421.41;5070867;28;20209;-59
2023/03/19 01:18:47;;;;;;;6.57;4.50;;;;;;;12.32;63.01;96424.88;5072052;28;20206;-58
2023/03/19 01:21:14;;;;;;;5.80;3.90;;;;;;;12.31;61.85;96428.50;5074284;28;20206;-57
2023/03/19 01:23:40;;;;;;;5.40;4.20;;;;;;;12.28;61.43;96422.69;5074253;28;20210;-57
2023/03/19 01:26:07;;;;;;;5.10;4.23;;;;;;;12.26;61.40;96429.94;5072892;28;20226;-57
2023/03/19 01:28:33;;;;;;;5.37;4.87;;;;;;;12.24;61.85;96431.94;5071192;28;20203;-58
2023/03/19 01:31:05;;;;;;;5.57;4.30;;;;;;;12.23;60.01;96424.97;5071096;28;20195;-57
2023/03/19 01:33:32;;;;;;;7.90;4.90;;;;;;;12.31;58.43;96433.81;5070317;28;20631;-58
2023/03/19 01:36:02;;;;;;;7.40;5.17;;;;;;;12.37;56.53;96433.16;5070672;28;20222;-57
2023/03/19 01:38:28;;;;;;;7.60;5.27;;;;;;;12.43;56.74;96439.66;5070500;28;20269;-58
2023/03/19 01:40:55;;;;;;;9.67;5.60;;;;;;;12.49;55.22;96433.72;5070903;28;20194;-58
2023/03/19 01:43:23;;;;;;;7.83;5.77;;;;;;;12.60;55.14;96432.59;5071013;28;20209;-58
2023/03/19 01:45:51;;;;;;;6.90;5.20;;;;;;;12.63;54.62;96432.28;5070152;28;20259;-58
2023/03/19 01:48:28;;;;;;;7.03;5.13;;;;;;;12.67;54.51;96433.63;5070385;28;20872;-58
2023/03/19 01:50:55;;;;;;;7.23;5.00;;;;;;;12.70;53.79;96430.63;5070241;28;20326;-58
2023/03/19 01:53:24;;;;;;;5.97;4.90;;;;;;;12.70;53.90;96439.44;5070380;28;20672;-58
2023/03/19 01:55:53;;;;;;;6.50;4.80;;;;;;;12.77;53.34;96435.13;5070745;28;20205;-58
2023/03/19 01:58:19;;;;;;;8.40;5.53;;;;;;;12.80;53.45;96440.13;5070224;28;20537;-57
2023/03/19 02:00:46;;;;;;;7.80;5.43;;;;;;;12.82;53.71;96432.81;5070797;28;20199;-58
2023/03/19 02:03:14;;;;;;;7.73;5.13;;;;;;;12.77;53.79;96437.78;5070247;28;20281;-58
2023/03/19 02:05:45;;;;;;;7.80;5.50;;;;;;;12.76;54.31;96430.81;5070031;28;20225;-58
2023/03/19 02:08:14;;;;;;;7.30;4.90;;;;;;;12.75;54.04;96425.69;5082709;28;20187;-58
2023/03/19 02:10:43;;;;;;;6.77;4.87;;;;;;;12.78;53.61;96428.84;5094979;28;20223;-57
2023/03/19 02:13:10;;;;;;;7.60;5.67;;;;;;;12.78;53.69;96434.16;5091544;28;20202;-58
2023/03/19 02:15:37;;;;;;;6.90;5.63;;;;;;;12.77;53.87;96435.13;5075820;28;20226;-58
2023/03/19 02:18:04;;;;;;;7.97;5.17;;;;;;;12.86;53.12;96434.16;5076233;28;20195;-58
2023/03/19 02:20:32;;;;;;;7.67;5.30;;;;;;;12.84;53.24;96433.50;5074810;28;20206;-57
2023/03/19 02:23:08;;;;;;;6.00;5.00;;;;;;;12.87;53.10;96441.13;5074863;28;20213;-58
2023/03/19 02:25:40;;;;;;;6.73;5.27;;;;;;;12.86;53.32;96443.94;5075441;28;20205;-58
2023/03/19 02:28:09;;;;;;;6.40;5.00;;;;;;;12.85;52.70;96443.13;5075021;28;20202;-58
2023/03/19 02:30:36;;;;;;;6.27;5.03;;;;;;;12.80;53.49;96440.13;5074273;28;20203;-58
2023/03/19 02:33:03;;;;;;;7.27;5.07;;;;;;;12.85;53.46;96447.59;5074453;28;20198;-58
2023/03/19 02:35:32;;;;;;;6.17;4.43;;;;;;;12.90;53.07;96439.97;5074835;28;20214;-57
2023/03/19 02:37:59;;;;;;;6.75;4.85;;;;;;;12.86;53.20;96442.13;5073466;28;20207;-58
2023/03/19 02:40:27;;;;;;;7.50;5.07;;;;;;;12.84;53.23;96441.47;5073715;28;20198;-57
2023/03/19 02:42:53;;;;;;;5.60;4.80;;;;;;;12.75;53.46;96442.41;5073806;28;20635;-58
2023/03/19 02:45:21;;;;;;;5.83;4.67;;;;;;;12.70;54.21;96444.75;5073218;28;20203;-58
2023/03/19 02:47:48;;;;;;;7.07;4.77;;;;;;;12.67;55.08;96444.22;5073816;28;20287;-58
2023/03/19 02:50:14;;;;;;;8.97;4.43;;;;;;;12.60;56.83;96438.75;5073079;28;20249;-58
2023/03/19 02:52:41;;;;;;;7.60;4.50;;;;;;;12.56;56.66;96445.34;5074037;28;20217;-58
2023/03/19 02:55:08;;;;;;;5.87;3.83;;;;;;;12.57;56.02;96452.31;5074092;28;20244;-58
2023/03/19 02:57:35;;;;;;;5.10;3.93;;;;;;;12.58;54.95;96446.00;5073490;28;20226;-58
2023/03/19 03:00:01;;;;;;;6.27;4.33;;;;;;;12.57;55.29;96447.03;5074088;28;20217;-58
2023/03/19 03:02:29;;;;;;;5.00;4.33;;;;;;;12.55;55.24;96451.63;5073777;28;20572;-58
2023/03/19 03:04:56;;;;;;;5.73;4.50;;;;;;;12.63;55.18;96458.81;5073856;28;20199;-58
2023/03/19 03:07:23;;;;;;;5.27;4.17;;;;;;;12.59;55.45;96455.63;5073085;28;20288;-58
2023/03/19 03:09:49;;;;;;;5.03;3.90;;;;;;;12.57;55.65;96454.97;5073769;28;20210;-58
2023/03/19 03:12:16;;;;;;;7.13;4.30;;;;;;;12.52;55.23;96457.25;5073423;28;20198;-58
2023/03/19 03:14:42;;;;;;;4.20;3.73;;;;;;;12.50;55.92;96456.59;5074500;28;20218;-56
2023/03/19 03:17:09;;;;;;;5.40;4.10;;;;;;;12.47;55.71;96460.38;5074213;28;20615;-58
2023/03/19 03:19:37;;;;;;;4.47;3.77;;;;;;;12.57;55.21;96460.28;5073154;28;20635;-58
2023/03/19 03:22:04;;;;;;;4.23;3.83;;;;;;;12.53;55.26;96460.75;5072845;28;20213;-58
2023/03/19 03:24:31;;;;;;;8.97;4.57;;;;;;;12.47;56.33;96465.69;5072614;28;20251;-58
2023/03/19 03:26:57;;;;;;;4.33;3.60;;;;;;;12.43;56.31;96463.53;5072867;28;20237;-58
2023/03/19 03:29:23;;;;;;;3.97;3.57;;;;;;;12.41;57.98;96465.50;5073251;28;20697;-58
2023/03/19 03:31:50;;;;;;;4.60;3.97;;;;;;;12.38;57.88;96471.13;5072944;28;20543;-58
2023/03/19 03:34:18;;;;;;;4.00;3.10;;;;;;;12.36;59.14;96478.41;5073531;28;20241;-58
2023/03/19 03:36:46;;;;;;;7.03;3.93;;;;;;;12.36;57.91;96475.75;5073205;28;20203;-58
2023/03/19 03:39:13;;;;;;;4.10;3.07;;;;;;;12.36;57.43;96475.75;5073356;28;20214;-58
2023/03/19 03:41:40;;;;;;;4.20;3.33;;;;;;;12.31;58.24;96475.41;5072613;28;20199;-58
2023/03/19 03:44:07;;;;;;;3.63;3.30;;;;;;;12.27;58.79;96485.47;5073143;28;20209;-59
2023/03/19 03:46:33;;;;;;;4.13;3.47;;;;;;;12.25;59.36;96481.34;5072559;28;20226;-58
2023/03/19 03:49:00;;;;;;;4.77;3.07;;;;;;;12.26;58.16;96482.97;5072609;28;20252;-57
2023/03/19 03:51:26;;;;;;;4.13;3.57;;;;;;;12.26;58.43;96488.28;5071828;28;20285;-58
2023/03/19 03:53:54;;;;;;;4.97;3.20;;;;;;;12.30;57.79;96487.81;5072594;28;20222;-57
2023/03/19 03:56:23;;;;;;;5.50;3.67;;;;;;;12.30;57.54;96495.78;5072505;28;20199;-57
2023/03/19 03:58:50;;;;;;;4.00;3.43;;;;;;;12.33;57.27;96491.97;5072319;28;20649;-58
2023/03/19 04:01:21;;;;;;;5.30;3.70;;;;;;;12.36;57.31;96499.63;5072205;28;20203;-58
2023/03/19 04:03:48;;;;;;;4.80;3.40;;;;;;;12.35;57.38;96495.31;5072532;28;20214;-58
2023/03/19 04:06:16;;;;;;;4.67;3.67;;;;;;;12.43;57.28;96498.81;5071791;28;20203;-57
2023/03/19 04:08:42;;;;;;;4.97;3.47;;;;;;;12.37;57.05;96502.09;5072238;28;20201;-58
2023/03/19 04:11:10;;;;;;;4.57;3.33;;;;;;;12.35;57.83;96503.25;5072151;28;20202;-58
2023/03/19 04:13:37;;;;;;;4.90;3.73;;;;;;;12.32;58.32;96503.59;5072254;28;20210;-58
2023/03/19 04:16:04;;;;;;;4.87;3.53;;;;;;;12.29;59.76;96514.50;5071871;28;20207;-58
2023/03/19 04:18:30;;;;;;;4.53;3.40;;;;;;;12.25;60.50;96505.19;5072253;28;20199;-58
2023/03/19 04:20:57;;;;;;;6.13;3.57;;;;;;;12.17;61.21;96505.13;5070890;28;20214;-58
2023/03/19 04:23:24;;;;;;;3.10;2.80;;;;;;;12.15;62.21;96512.44;5072208;28;20202;-58
2023/03/19 04:25:50;;;;;;;6.53;3.37;;;;;;;12.12;61.38;96508.25;5071453;28;20643;-58
2023/03/19 04:28:19;;;;;;;7.30;4.00;;;;;;;12.10;61.33;96504.09;5075260;28;20230;-57
2023/03/19 04:30:46;;;;;;;4.50;3.23;;;;;;;12.05;62.86;96503.72;5095872;28;20202;-57
2023/03/19 04:33:12;;;;;;;3.93;3.00;;;;;;;11.96;63.15;96516.09;5096842;28;20179;-58
2023/03/19 04:35:40;;;;;;;3.40;3.00;;;;;;;11.90;64.23;96509.59;5088105;28;20270;-58
2023/03/19 04:38:06;;;;;;;4.30;3.40;;;;;;;11.89;63.71;96518.53;5073735;28;20206;-58
2023/03/19 04:40:33;;;;;;;4.23;3.20;;;;;;;11.78;65.57;96516.13;5072372;28;20203;-58
2023/03/19 04:43:01;;;;;;;5.57;3.30;;;;;;;11.69;67.56;96522.28;5072559;28;20252;-58
2023/03/19 04:45:30;;;;;;;4.40;2.77;;;;;;;11.68;66.59;96514.53;5070865;28;20206;-57
2023/03/19 04:47:57;;;;;;;5.53;3.27;;;;;;;11.61;67.35;96519.59;5071638;28;20321;-58
2023/03/19 04:50:23;;;;;;;4.10;2.90;;;;;;;11.53;67.43;96522.16;5071476;28;20554;-58
2023/03/19 04:52:50;;;;;;;5.37;3.23;;;;;;;11.53;67.65;96530.13;5071828;28;20551;-58
2023/03/19 04:55:16;;;;;;;4.37;3.00;;;;;;;11.51;67.24;96528.59;5095490;28;20209;-58
2023/03/19 04:57:43;;;;;;;4.30;3.20;;;;;;;11.46;67.22;96534.34;5097544;28;20182;-58
2023/03/19 05:00:13;;;;;;;5.83;3.30;;;;;;;11.44;66.86;96528.38;5094813;28;20202;-57
2023/03/19 05:02:41;;;;;;;4.17;3.00;;;;;;;11.42;67.96;96532.97;5094709;28;20198;-58
2023/03/19 05:05:09;;;;;;;4.03;3.30;;;;;;;11.41;68.46;96539.25;5078288;28;20217;-58
2023/03/19 05:07:36;;;;;;;5.83;3.23;;;;;;;11.33;70.35;96536.53;5071670;28;20287;-58
2023/03/19 05:10:03;;;;;;;4.40;3.20;;;;;;;11.28;70.74;96539.63;5071691;28;20279;-58
2023/03/19 05:12:29;;;;;;;4.17;2.90;;;;;;;11.27;69.81;96543.25;5070932;28;20646;-58
2023/03/19 05:14:56;;;;;;;4.17;3.43;;;;;;;11.27;70.37;96537.97;5071678;28;20206;-58
2023/03/19 05:17:22;;;;;;;3.70;3.40;;;;;;;11.27;70.82;96539.78;5070860;28;20280;-58
2023/03/19 05:19:51;;;;;;;4.67;3.30;;;;;;;11.25;73.20;96539.94;5071426;28;20210;-57
2023/03/19 05:22:18;;;;;;;4.83;3.10;;;;;;;11.24;73.41;96538.25;5070058;28;20316;-58
2023/03/19 05:24:45;;;;;;;3.40;3.10;;;;;;;11.19;75.89;96545.00;5072201;28;20285;-58
2023/03/19 05:27:12;;;;;;;4.43;3.30;;;;;;;11.14;77.87;96536.66;5070864;28;20583;-58
2023/03/19 05:29:39;;;;;;;3.30;3.00;;;;;;;11.11;77.73;96534.31;5071072;28;20297;-58
2023/03/19 05:32:06;;;;;;;6.83;3.30;;;;;;;11.09;81.63;96536.28;5070488;28;20648;-58
2023/03/19 05:34:33;;;;;;;6.27;3.40;;;;;;;11.13;79.88;96534.97;5071322;28;20271;-58
2023/03/19 05:37:01;;;;;;;3.40;2.80;;;;;;;11.17;78.55;96531.91;5070321;28;20210;-59
2023/03/19 05:39:27;;;;;;;4.60;3.30;;;;;;;11.24;77.04;96540.06;5070773;28;20243;-58
2023/03/19 05:41:54;;;;;;;6.30;3.23;;;;;;;11.19;78.49;96540.53;5070541;28;20581;-58
2023/03/19 05:44:21;;;;;;;4.40;3.20;;;;;;;11.16;80.49;96540.00;5070812;28;21359;-58
2023/03/19 05:46:47;;;;;;;4.57;3.10;;;;;;;11.13;81.45;96541.13;5070529;28;20214;-58
2023/03/19 05:49:14;;;;;;;3.17;2.90;;;;;;;11.12;80.25;96547.41;5070743;28;20258;-58
2023/03/19 05:51:40;;;;;;;3.77;2.97;;;;;;;11.04;81.90;96549.13;5070374;28;20217;-58
2023/03/19 05:54:08;;;;;;;3.40;3.10;;;;;;;11.05;81.93;96550.78;5071476;28;20206;-58
2023/03/19 05:56:35;;;;;;;5.27;3.60;;;;;;;11.05;81.36;96548.16;5070512;28;20210;-58
2023/03/19 05:59:01;;;;;;;3.97;2.87;;;;;;;11.09;80.68;96554.81;5071242;28;20520;-57
2023/03/19 06:01:28;;;;;;;4.27;3.20;;;;;;;11.08;78.99;96553.16;5070530;28;20203;-57
2023/03/19 06:03:54;;;;;;;4.37;3.40;;;;;;;11.06;82.01;96555.09;5070674;28;20202;-58
2023/03/19 06:06:21;;;;;;;3.13;2.80;;;;;;;11.03;85.34;96555.38;5070013;28;20206;-58
2023/03/19 06:08:48;;;;;;;3.27;2.93;;;;;;;10.96;85.13;96555.97;5070465;28;20222;-57
2023/03/19 06:11:15;;;;;;;3.63;3.23;;;;;;;10.92;85.89;96559.91;5070465;28;20211;-58
2023/03/19 06:13:43;;;;;;;3.43;3.13;;;;;;;10.95;87.87;96561.41;5071499;28;20576;-57
2023/03/19 06:16:10;;;;;;;5.20;2.93;;;;;;;10.79;87.70;96569.16;5070838;28;20210;-58
2023/03/19 06:18:37;;;;;;;5.47;3.33;;;;;;;10.82;90.21;96567.06;5070928;28;20206;-58
2023/03/19 06:21:04;;;;;;;3.93;2.77;;;;;;;10.87;88.79;96567.47;5070605;28;20211;-59
2023/03/19 06:23:31;;;;;;;4.23;2.93;;;;;;;10.84;91.62;96559.00;5070810;28;20207;-56
2023/03/19 06:25:57;;;;;;;3.90;2.77;;;;;;;10.86;89.46;96555.22;5070561;28;20202;-59
2023/03/19 06:28:25;;;;;;;3.93;3.20;;;;;;;10.88;88.91;96558.53;5070714;28;20226;-58
2023/03/19 06:30:54;;;;;;;3.97;2.93;;;;;;;10.88;88.43;96565.63;5070587;28;20195;-58
2023/03/19 06:33:21;;;;;;;4.10;2.60;;;;;;;10.82;86.06;96569.69;5070151;28;20260;-58
2023/03/19 06:35:48;;;;;;;5.43;3.07;;;;;;;10.84;85.57;96573.03;5069761;28;20222;-58
2023/03/19 06:38:15;;;;;;;5.77;2.77;;;;;;;10.84;86.51;96580.16;5069968;28;20206;-57
2023/03/19 06:40:41;;;;;;;5.03;3.07;;;;;;;10.78;86.39;96573.63;5070553;28;20210;-57
2023/03/19 06:43:08;;;;;;;6.43;3.00;;;;;;;10.82;91.68;96569.69;5069824;28;20221;-57
2023/03/19 06:45:36;;;;;;;3.10;2.80;;;;;;;10.83;93.44;96571.38;5069709;28;20679;-58
2023/03/19 06:48:02;;;;;;;3.20;2.90;;;;;;;10.84;93.84;96573.03;5069642;28;20218;-58
2023/03/19 06:50:29;;;;;;;4.57;3.40;;;;;;;10.81;93.48;96562.75;5069889;28;20245;-58
2023/03/19 06:52:55;;;;;;;5.30;3.57;;;;;;;10.80;95.31;96576.97;5071998;28;20209;-58
2023/03/19 06:55:22;;;;;;;6.17;2.90;;;;;;;10.85;94.19;96571.22;5078478;28;20198;-57
2023/03/19 06:57:49;;;;;;;5.60;3.07;;;;;;;10.82;94.51;96567.06;5089627;28;20195;-58
2023/03/19 07:00:18;;;;;;;5.40;3.20;;;;;;;10.88;94.96;96566.47;5085325;28;20202;-57
2023/03/19 07:02:46;;;;;;;3.30;3.00;;;;;;;10.88;95.30;96571.75;5081459;28;20229;-58
2023/03/19 07:05:13;;;;;;;3.90;2.80;;;;;;;10.94;96.36;96573.00;5077111;28;20210;-59
2023/03/19 07:07:40;;;;;;;4.53;3.00;;;;;;;10.97;96.13;96573.53;5074347;28;20261;-58
2023/03/19 07:10:07;;;;;;;3.10;2.80;;;;;;;11.03;97.50;96571.25;5074849;28;20206;-58
2023/03/19 07:12:34;;;;;;;4.17;3.20;;;;;;;11.04;98.29;96570.28;5073907;28;20237;-58
2023/03/19 07:15:01;;;;;;;3.80;3.10;;;;;;;11.12;97.59;96570.41;5074046;28;20601;-58
2023/03/19 07:17:27;;;;;;;3.40;3.10;;;;;;;11.22;97.17;96571.16;5073385;28;20195;-58
2023/03/19 07:19:55;;;;;;;5.00;3.03;;;;;;;11.31;99.16;96571.09;5075670;28;20627;-58
2023/03/19 07:22:21;;;;;;;4.30;2.80;;;;;;;11.37;95.70;96572.34;5074177;28;20536;-58
2023/03/19 07:24:48;;;;;;;4.30;3.50;;;;;;;11.48;90.83;96580.88;5085281;28;20237;-57
2023/03/19 07:27:15;;;;;;;3.30;3.00;;;;;;;11.58;86.56;96580.81;5076691;28;20211;-57
2023/03/19 07:29:41;;;;;;;4.90;3.17;;;;;;;11.79;84.60;96585.84;5082532;28;20206;-59
2023/03/19 07:32:09;;;;;;;5.00;3.13;;;;;;;11.90;83.10;96583.78;5086023;28;20207;-59
2023/03/19 07:34:36;;;;;;;3.13;2.90;;;;;;;12.08;80.07;96581.09;5078493;28;20272;-59
2023/03/19 07:37:04;;;;;;;3.03;2.70;;;;;;;12.21;78.61;96580.72;5072577;28;20284;-58
2023/03/19 07:39:30;;;;;;;3.43;3.13;;;;;;;12.36;76.19;96584.50;5072691;28;20191;-58
2023/03/19 07:41:58;;;;;;;2.63;2.43;;;;;;;12.63;76.70;96592.28;5072447;28;20202;-59
2023/03/19 07:44:24;;;;;;;2.60;2.40;;;;;;;12.88;73.24;96586.13;5073285;28;20281;-58
2023/03/19 07:46:51;;;;;;;2.90;2.70;;;;;;;13.04;72.45;96582.69;5072611;28;20217;-57
2023/03/19 07:49:17;;;;;;;3.07;2.60;;;;;;;13.17;69.75;96580.47;5082840;28;20844;-59
2023/03/19 07:51:44;;;;;;;4.13;2.67;;;;;;;13.41;69.58;96587.69;5083454;28;20191;-58
2023/03/19 07:54:11;;;;;;;5.63;2.90;;;;;;;13.59;69.51;96583.06;5083445;28;20324;-58
2023/03/19 07:56:38;;;;;;;5.47;3.07;;;;;;;13.69;70.25;96575.78;5072900;28;20195;-58
2023/03/19 07:59:04;;;;;;;4.67;3.77;;;;;;;13.81;68.26;96585.13;5072756;28;20639;-58
2023/03/19 08:01:31;;;;;;;5.40;3.93;;;;;;;13.96;71.28;96585.25;5072524;28;20634;-57
2023/03/19 08:03:58;;;;;;;3.23;2.93;;;;;;;14.07;66.08;96579.63;5072829;28;20203;-57
2023/03/19 08:06:25;;;;;;;4.67;2.67;;;;;;;14.23;64.01;96586.78;5072384;28;20210;-57
2023/03/19 08:08:51;;;;;;;3.87;2.67;;;;;;;14.36;61.20;96582.66;5072962;28;20246;-57
2023/03/19 08:11:19;;;;;;;2.58;2.15;;;;;;;14.41;60.70;96582.16;5072651;28;20547;-58
2023/03/19 08:13:46;;;;;;;3.13;2.67;;;;;;;14.26;61.58;96589.94;5072591;28;20228;-58
2023/03/19 08:16:12;;;;;;;2.93;2.60;;;;;;;14.41;62.72;96588.31;5071536;28;20194;-59
2023/03/19 08:18:39;;;;;;;3.92;2.63;;;;;;;14.58;62.79;96583.78;5072154;28;20631;-59
2023/03/19 08:21:07;;;;;;;5.63;2.90;;;;;;;14.59;62.56;96585.47;5071759;28;20209;-56
2023/03/19 08:23:34;;;;;;;2.90;2.70;;;;;;;14.77;61.74;96591.38;5071805;28;20210;-59
2023/03/19 08:26:00;;;;;;;4.97;3.10;;;;;;;15.00;62.16;96593.31;5072098;28;20288;-57
2023/03/19 08:28:28;;;;;;;3.35;2.80;;;;;;;15.14;60.62;96589.94;5071980;28;20223;-58
2023/03/19 08:30:55;;;;;;;4.03;3.10;;;;;;;15.08;59.06;96585.31;5073059;28;20206;-58
2023/03/19 08:33:22;;;;;;;3.28;2.78;;;;;;;15.37;60.51;96590.84;5072168;28;20240;-59
2023/03/19 08:35:49;;;;;;;3.53;3.03;;;;;;;15.55;60.94;96586.13;5072167;28;20226;-57
2023/03/19 08:38:15;;;;;;;3.45;2.95;;;;;;;15.62;57.54;96581.75;5072038;28;20205;-58
2023/03/19 08:40:42;;;;;;;3.22;2.80;;;;;;;15.78;59.18;96584.31;5071884;28;20210;-57
2023/03/19 08:43:10;;;;;;;4.70;3.28;;;;;;;15.88;58.11;96584.06;5071653;28;20198;-58
2023/03/19 08:45:38;;;;;;;3.97;3.20;;;;;;;16.06;56.76;96579.28;5071555;28;20202;-59
2023/03/19 08:48:04;;;;;;;4.15;3.38;;;;;;;15.78;56.03;96575.47;5071705;28;20234;-60
2023/03/19 08:50:31;;;;;;;5.15;3.45;;;;;;;15.86;56.24;96576.28;5070854;28;20273;-59
2023/03/19 08:52:57;;;;;;;3.50;2.90;;;;;;;15.84;54.94;96582.75;5070862;28;20198;-59
2023/03/19 08:55:24;;;;;;;3.88;2.70;;;;;;;15.76;55.25;96585.50;5071788;28;20202;-59
2023/03/19 08:57:50;;;;;;;5.00;2.80;;;;;;;16.24;55.45;96581.63;5071657;28;20592;-59
2023/03/19 09:00:18;;;;;;;5.18;2.78;;;;;;;16.23;53.17;96585.31;5070864;28;20217;-59
2023/03/19 09:02:46;;;;;;;5.07;2.42;;;;;;;16.23;52.44;96586.13;5069964;28;20210;-58
2023/03/19 09:05:12;;;;;;;9.63;6.38;;;;;;;16.42;52.72;96584.81;5071000;28;20319;-57
2023/03/19 09:07:39;;;;;;;6.47;3.88;;;;;;;16.80;54.28;96582.97;5072144;28;20218;-57
2023/03/19 09:10:06;;;;;;;3.60;3.13;;;;;;;16.90;51.45;96583.53;5072668;28;20199;-58
2023/03/19 09:12:33;;;;;;;4.20;3.28;;;;;;;17.19;51.93;96586.19;5071703;28;20249;-58
2023/03/19 09:14:59;;;;;;;3.60;2.92;;;;;;;17.46;50.43;96592.75;5076009;28;20206;-59
2023/03/19 09:17:26;;;;;;;2.58;2.17;;;;;;;17.57;48.15;96589.59;5077088;28;20535;-58
2023/03/19 09:19:53;;;;;;;3.05;2.38;;;;;;;17.94;50.31;96591.25;5078013;28;20249;-58
2023/03/19 09:22:20;;;;;;;2.55;2.35;;;;;;;18.16;49.82;96592.09;5074708;28;20289;-58
2023/03/19 09:24:47;;;;;;;4.03;2.38;;;;;;;18.38;46.82;96597.25;5072751;28;20305;-58
2023/03/19 09:27:13;;;;;;;2.83;2.50;;;;;;;18.51;48.50;96593.03;5071807;28;20241;-59
2023/03/19 09:29:40;;;;;;;4.05;3.08;;;;;;;18.59;50.11;96592.91;5071582;28;20749;-57
2023/03/19 09:32:06;;;;;;;4.40;2.55;;;;;;;18.18;48.87;96592.72;5071023;28;20206;-58
2023/03/19 09:34:32;;;;;;;2.92;2.65;;;;;;;17.92;48.40;96591.41;5072110;28;20259;-58
2023/03/19 09:37:00;;;;;;;2.72;2.25;;;;;;;17.80;50.07;96592.13;5071509;28;20210;-59
2023/03/19 09:39:28;;;;;;;4.43;3.10;;;;;;;17.53;51.23;96585.63;5071909;28;20207;-57
2023/03/19 09:42:03;;;;;;;2.80;2.60;;;;;;;17.29;52.50;96580.56;5071326;28;20206;-59
2023/03/19 09:44:31;;;;;;;2.70;2.40;;;;;;;17.48;52.44;96582.66;5071761;28;20627;-59
2023/03/19 09:47:03;;;;;;;3.65;2.53;;;;;;;17.61;49.28;96580.19;5071526;28;20194;-58
2023/03/19 09:49:31;;;;;;;3.45;2.53;;;;;;;18.07;48.81;96579.84;5071039;28;20234;-57
2023/03/19 09:52:01;;;;;;;4.85;2.63;;;;;;;18.16;46.91;96573.34;5070410;28;20258;-58
2023/03/19 09:54:35;;;;;;;3.47;2.72;;;;;;;18.40;48.54;96576.47;5070713;28;20293;-56
2023/03/19 09:57:02;;;;;;;5.38;4.40;;;;;;;18.55;46.04;96573.72;5070075;28;20202;-58
2023/03/19 09:59:29;;;;;;;3.58;2.70;;;;;;;18.26;47.14;96573.84;5069913;28;20202;-58
2023/03/19 10:02:05;;;;;;;5.88;2.85;;;;;;;18.34;47.17;96565.69;5070006;28;20558;-59
2023/03/19 10:04:41;;;;;;;3.35;2.67;;;;;;;18.08;46.12;96565.44;5070530;28;20205;-58
2023/03/19 10:07:17;;;;;;;3.15;2.67;;;;;;;17.88;46.69;96568.78;5070150;28;20643;-59
2023/03/19 10:09:55;;;;;;;3.97;2.72;;;;;;;18.38;47.54;96567.81;5071264;28;20214;-58
2023/03/19 10:12:30;;;;;;;3.17;2.63;;;;;;;18.55;48.74;96557.66;5070523;28;20229;-57
2023/03/19 10:15:07;;;;;;;4.65;3.10;;;;;;;18.64;47.28;96556.47;5069889;28;20197;-56
2023/03/19 10:17:36;;;;;;;3.55;2.83;;;;;;;18.77;46.95;96553.91;5070151;28;20194;-57
2023/03/19 10:20:07;;;;;;;4.32;3.45;;;;;;;18.67;46.82;96555.28;5070484;28;20643;-58
2023/03/19 10:22:36;;;;;;;4.18;3.15;;;;;;;18.50;46.36;96557.38;5069983;28;20202;-58
2023/03/19 10:25:05;;;;;;;6.32;3.10;;;;;;;18.27;47.41;96559.47;5069992;28;20860;-57
2023/03/19 10:27:32;;;;;;;3.10;2.70;;;;;;;18.10;47.77;96558.91;5069951;28;20637;-57
2023/03/19 10:29:59;;;;;;;3.63;2.70;;;;;;;17.71;49.51;96559.31;5069372;28;20230;-58
2023/03/19 10:32:29;;;;;;;4.05;2.88;;;;;;;17.64;49.67;96554.94;5069949;28;20218;-56
2023/03/19 10:34:59;;;;;;;3.30;3.00;;;;;;;17.59;50.25;96555.47;5078058;28;20205;-57
2023/03/19 10:37:28;;;;;;;3.63;3.30;;;;;;;17.56;49.28;96553.19;5076713;28;20286;-56
2023/03/19 10:39:56;;;;;;;3.70;3.17;;;;;;;17.54;50.06;96549.81;5073074;28;20623;-58
2023/03/19 10:42:40;;;;;;;3.33;2.85;;;;;;;18.13;48.74;96542.47;5073337;28;20205;-58
2023/03/19 10:45:19;;;;;;;4.00;3.63;;;;;;;18.66;48.25;96548.25;5072556;28;20202;-58
2023/03/19 10:47:45;;;;;;;3.35;3.05;;;;;;;19.24;45.93;96536.22;5074064;28;20209;-58
2023/03/19 10:50:16;;;;;;;3.63;3.30;;;;;;;19.49;43.91;96545.44;5072576;28;20747;-57
2023/03/19 10:52:42;;;;;;;4.07;3.38;;;;;;;19.24;44.10;96544.25;5075260;28;20195;-58
2023/03/19 10:55:15;;;;;;;4.28;3.20;;;;;;;18.91;46.38;96540.59;5073868;28;20216;-57
2023/03/19 10:57:44;;;;;;;4.85;2.95;;;;;;;18.59;46.27;96537.50;5084960;28;20202;-57
2023/03/19 11:00:17;;;;;;;3.55;2.55;;;;;;;18.61;47.97;96546.16;5099439;28;20185;-57
2023/03/19 11:02:47;;;;;;;3.13;2.92;;;;;;;18.40;47.23;96549.69;5095413;28;20207;-56
2023/03/19 11:05:24;;;;;;;3.50;3.00;;;;;;;18.05;49.17;96542.59;5096568;28;20216;-56
2023/03/19 11:07:51;;;;;;;3.95;3.20;;;;;;;17.85;48.06;96539.69;5092467;28;20231;-58
2023/03/19 11:10:18;;;;;;;4.63;3.00;;;;;;;17.77;48.59;96537.16;5084012;28;20233;-56
2023/03/19 11:12:52;;;;;;;3.15;2.80;;;;;;;17.53;49.73;96542.84;5074262;28;20649;-56
2023/03/19 11:15:21;;;;;;;3.10;2.80;;;;;;;17.41;49.82;96550.50;5072074;28;20185;-57
2023/03/19 11:17:50;;;;;;;4.43;2.80;;;;;;;17.34;50.38;96541.59;5073550;28;20223;-58
2023/03/19 11:20:25;;;;;;;3.55;2.75;;;;;;;17.15;52.85;96535.97;5073180;28;20298;-59
2023/03/19 11:22:52;;;;;;;3.20;2.90;;;;;;;17.26;51.78;96530.16;5073825;28;20252;-57
2023/03/19 11:25:24;;;;;;;5.57;3.50;;;;;;;17.29;52.52;96532.44;5073372;28;20286;-57
2023/03/19 11:28:00;;;;;;;3.67;3.05;;;;;;;17.37;50.88;96530.50;5073277;28;20229;-57
2023/03/19 11:30:32;;;;;;;4.60;3.55;;;;;;;17.31;51.50;96525.94;5073150;28;20305;-57
2023/03/19 11:33:31;;;;;;;3.70;3.40;;;;;;;17.11;54.09;96534.72;5091754;28;20194;-57
2023/03/19 11:36:02;;;;;;;5.57;3.40;;;;;;;17.19;51.30;96524.75;5035502;28;20553;-58